createdAt,value
2019-03-05T00:01:54.173Z,99239.61
2019-03-05T00:04:23.687Z,99238.31
2019-03-05T00:06:53.183Z,99237.63
2019-03-05T00:09:22.894Z,99243.03
2019-03-05T00:11:52.437Z,99245.64
2019-03-05T00:14:25.146Z,99245.41
2019-03-05T00:16:54.692Z,99256.53
2019-03-05T00:19:24.221Z,99239.67
2019-03-05T00:21:53.991Z,99244.75
2019-03-05T00:24:44.242Z,99257.59
2019-03-05T00:27:13.706Z,99261.75
2019-03-05T00:30:16.893Z,99256.83
2019-03-05T00:32:48.471Z,99250.91
2019-03-05T00:35:30.343Z,99258.34
2019-03-05T00:38:27.512Z,99261.05
2019-03-05T00:41:11.648Z,99264.97
2019-03-05T00:44:03.646Z,99262.52
2019-03-05T00:46:49.568Z,99274.77
2019-03-05T00:49:58.403Z,99267.07
2019-03-05T00:53:13.012Z,99265.09
2019-03-05T00:56:10.014Z,99278.13
2019-03-05T00:58:54.059Z,99281.60
2019-03-05T01:02:11.082Z,99280.49
2019-03-05T01:05:17.856Z,99281.03
2019-03-05T01:07:47.366Z,99282.80
2019-03-05T01:10:16.949Z,99288.92
2019-03-05T01:12:46.518Z,99287.12
2019-03-05T01:15:16.499Z,99284.23
2019-03-05T01:17:45.999Z,99280.27
2019-03-05T01:20:15.497Z,99279.85
2019-03-05T01:22:44.984Z,99280.98
2019-03-05T01:25:27.806Z,99279.80
2019-03-05T01:27:57.398Z,99276.58
2019-03-05T01:30:36.009Z,99281.29
2019-03-05T01:33:10.160Z,99287.92
2019-03-05T01:35:45.001Z,99288.50
2019-03-05T01:38:14.508Z,99289.92
2019-03-05T01:40:48.998Z,99290.75
2019-03-05T01:43:18.573Z,99297.16
2019-03-05T01:45:48.080Z,99297.81
2019-03-05T01:48:17.583Z,99286.45
2019-03-05T01:50:47.088Z,99290.29
2019-03-05T01:53:16.664Z,99286.53
2019-03-05T01:55:46.158Z,99305.27
2019-03-05T01:58:15.678Z,99293.63
2019-03-05T02:00:45.249Z,99307.87
2019-03-05T02:03:14.869Z,99310.72
2019-03-05T02:05:44.364Z,99306.64
2019-03-05T02:08:13.966Z,99311.30
2019-03-05T02:10:43.695Z,99309.03
2019-03-05T02:13:13.284Z,99319.94
2019-03-05T02:15:42.783Z,99314.21
2019-03-05T02:18:18.359Z,99317.88
2019-03-05T02:20:48.178Z,99319.55
2019-03-05T02:23:38.068Z,99311.81
2019-03-05T02:26:46.318Z,99318.62
2019-03-05T02:29:54.268Z,99320.13
2019-03-05T02:32:41.710Z,99315.53
2019-03-05T02:35:20.104Z,99328.66
2019-03-05T02:38:05.702Z,99323.91
2019-03-05T02:41:02.440Z,99324.55
2019-03-05T02:43:44.147Z,99324.72
2019-03-05T02:46:24.169Z,99333.43
2019-03-05T02:49:19.564Z,99328.48
2019-03-05T02:52:24.140Z,99325.99
2019-03-05T02:55:23.424Z,99324.88
2019-03-05T02:57:51.731Z,99334.26
2019-03-05T03:00:32.613Z,99335.66
2019-03-05T03:03:08.534Z,99339.75
2019-03-05T03:05:56.126Z,99338.94
2019-03-05T03:08:25.634Z,99342.30
2019-03-05T03:10:55.201Z,99341.83
2019-03-05T03:13:24.706Z,99347.65
2019-03-05T03:15:54.207Z,99341.59
2019-03-05T03:18:23.725Z,99340.36
2019-03-05T03:20:53.250Z,99344.08
2019-03-05T03:23:22.747Z,99352.31
2019-03-05T03:25:52.317Z,99348.00
2019-03-05T03:28:21.819Z,99355.56
2019-03-05T03:30:51.367Z,99299.83
2019-03-05T03:33:20.945Z,99369.78
2019-03-05T03:35:50.444Z,99369.92
2019-03-05T03:38:19.958Z,99368.05
2019-03-05T03:40:49.456Z,99380.39
2019-03-05T03:43:18.961Z,99385.86
2019-03-05T03:45:48.489Z,99380.81
2019-03-05T03:48:17.999Z,99382.58
2019-03-05T03:50:47.509Z,99383.91
2019-03-05T03:53:17.008Z,99383.34
2019-03-05T03:55:46.517Z,99380.89
2019-03-05T03:58:16.102Z,99386.10
2019-03-05T04:00:45.621Z,99376.25
2019-03-05T04:03:15.181Z,99393.11
2019-03-05T04:05:44.686Z,99386.77
2019-03-05T04:08:14.214Z,99382.11
2019-03-05T04:10:43.711Z,99384.00
2019-03-05T04:13:13.231Z,99384.92
2019-03-05T04:15:42.815Z,99389.90
2019-03-05T04:18:12.323Z,99392.86
2019-03-05T04:20:45.885Z,99391.17
2019-03-05T04:23:15.471Z,99398.55
2019-03-05T04:25:45.145Z,99404.41
2019-03-05T04:28:14.694Z,99408.30
2019-03-05T04:30:44.263Z,99397.69
2019-03-05T04:33:13.789Z,99395.62
2019-03-05T04:35:43.299Z,99400.38
2019-03-05T04:38:12.898Z,99398.32
2019-03-05T04:40:42.441Z,99396.83
2019-03-05T04:43:12.940Z,99397.79
2019-03-05T04:45:50.834Z,99399.90
2019-03-05T04:48:21.719Z,99392.61
2019-03-05T04:51:00.171Z,99401.38
2019-03-05T04:53:29.688Z,99401.48
2019-03-05T04:55:59.287Z,99404.63
2019-03-05T04:58:28.802Z,99410.19
2019-03-05T05:00:58.327Z,99417.39
2019-03-05T05:03:27.868Z,99413.86
2019-03-05T05:05:57.386Z,99420.34
2019-03-05T05:08:26.904Z,99424.45
2019-03-05T05:10:57.469Z,99432.59
2019-03-05T05:13:26.980Z,99422.25
2019-03-05T05:15:56.501Z,99436.69
2019-03-05T05:18:26.028Z,99447.54
2019-03-05T05:20:55.563Z,99441.44
2019-03-05T05:23:25.056Z,99453.14
2019-03-05T05:25:54.721Z,99439.81
2019-03-05T05:28:24.158Z,99454.86
2019-03-05T05:30:53.672Z,99449.04
2019-03-05T05:33:23.195Z,99454.73
2019-03-05T05:35:52.758Z,99462.19
2019-03-05T05:38:22.275Z,99460.55
2019-03-05T05:40:51.806Z,99464.53
2019-03-05T05:43:24.062Z,99471.79
2019-03-05T05:45:53.876Z,99474.95
2019-03-05T05:48:23.440Z,99474.05
2019-03-05T05:50:52.960Z,99480.38
2019-03-05T05:53:22.587Z,99476.52
2019-03-05T05:55:52.097Z,99468.12
2019-03-05T05:58:21.635Z,99477.94
2019-03-05T06:00:53.357Z,99472.37
2019-03-05T06:03:22.873Z,99471.45
2019-03-05T06:05:52.391Z,99487.24
2019-03-05T06:08:21.902Z,99485.14
2019-03-05T06:10:52.919Z,99482.79
2019-03-05T06:13:22.756Z,99490.84
2019-03-05T06:15:52.366Z,99504.41
2019-03-05T06:18:21.869Z,99501.98
2019-03-05T06:20:51.456Z,99512.14
2019-03-05T06:23:20.979Z,99508.56
2019-03-05T06:25:50.512Z,99514.07
2019-03-05T06:28:20.976Z,99526.34
2019-03-05T06:30:50.495Z,99526.67
2019-03-05T06:33:20.038Z,99524.10
2019-03-05T06:35:49.566Z,99529.48
2019-03-05T06:38:19.095Z,99529.28
2019-03-05T06:40:48.629Z,99530.82
2019-03-05T06:43:18.130Z,99541.03
2019-03-05T06:45:48.019Z,99538.18
2019-03-05T06:48:18.575Z,99528.16
2019-03-05T06:50:48.279Z,99535.89
2019-03-05T06:53:19.171Z,99538.47
2019-03-05T06:55:48.704Z,99531.14
2019-03-05T06:58:18.250Z,99537.11
2019-03-05T07:00:47.766Z,99540.24
2019-03-05T07:03:17.319Z,99547.77
2019-03-05T07:06:23.202Z,99547.77
2019-03-05T07:09:12.993Z,99548.97
2019-03-05T07:12:19.647Z,99551.66
2019-03-05T07:15:35.803Z,99550.27
2019-03-05T07:18:16.122Z,99562.91
2019-03-05T07:21:33.283Z,99563.80
2019-03-05T07:24:40.866Z,99558.66
2019-03-05T07:27:10.819Z,99547.80
2019-03-05T07:29:40.992Z,99549.80
2019-03-05T07:32:10.524Z,99557.50
2019-03-05T07:34:42.467Z,99574.05
2019-03-05T07:37:12.820Z,99573.27
2019-03-05T07:39:42.336Z,99575.52
2019-03-05T07:42:11.936Z,99576.27
2019-03-05T07:44:41.457Z,99583.28
2019-03-05T07:47:10.981Z,99572.44
2019-03-05T07:49:44.006Z,99586.11
2019-03-05T07:52:11.715Z,99594.94
2019-03-05T07:54:41.217Z,99597.98
2019-03-05T07:57:10.742Z,99592.34
2019-03-05T07:59:40.266Z,99600.22
2019-03-05T08:02:09.953Z,99597.07
2019-03-05T08:04:39.476Z,99594.58
2019-03-05T08:07:08.985Z,99594.44
2019-03-05T08:09:39.187Z,99600.58
2019-03-05T08:12:32.093Z,99595.83
2019-03-05T08:15:08.603Z,99598.34
2019-03-05T08:17:38.121Z,99603.45
2019-03-05T08:20:09.378Z,99609.49
2019-03-05T08:22:38.889Z,99616.51
2019-03-05T08:25:09.733Z,99615.35
2019-03-05T08:27:39.238Z,99626.17
2019-03-05T08:30:14.528Z,99636.08
2019-03-05T08:32:42.882Z,99624.62
2019-03-05T08:35:12.403Z,99642.56
2019-03-05T08:37:41.927Z,99639.59
2019-03-05T08:40:12.088Z,99645.06
2019-03-05T08:42:41.613Z,99654.55
2019-03-05T08:45:12.625Z,99604.56
2019-03-05T08:47:42.239Z,99659.81
2019-03-05T08:50:12.119Z,99664.38
2019-03-05T08:52:41.633Z,99668.30
2019-03-05T08:55:11.175Z,99658.37
2019-03-05T08:57:40.726Z,99668.66
2019-03-05T09:00:13.191Z,99673.59
2019-03-05T09:02:48.683Z,99676.83
2019-03-05T09:05:14.931Z,99672.69
2019-03-05T09:07:44.682Z,99683.13
2019-03-05T09:10:15.379Z,99683.05
2019-03-05T09:12:44.895Z,99681.69
2019-03-05T09:15:16.030Z,99677.38
2019-03-05T09:17:45.707Z,99680.34
2019-03-05T09:20:16.125Z,99679.53
2019-03-05T09:22:45.684Z,99687.52
2019-03-05T09:25:15.295Z,99693.38
2019-03-05T09:27:45.003Z,99696.44
2019-03-05T09:30:16.945Z,99690.72
2019-03-05T09:32:46.455Z,99686.78
2019-03-05T09:35:16.152Z,99691.30
2019-03-05T09:37:45.759Z,99692.81
2019-03-05T09:40:17.941Z,99704.95
2019-03-05T09:42:47.462Z,99704.56
2019-03-05T09:45:18.021Z,99704.39
2019-03-05T09:47:47.605Z,99707.96
2019-03-05T09:50:17.537Z,99697.05
2019-03-05T09:52:54.760Z,99700.37
2019-03-05T09:55:19.561Z,99705.48
2019-03-05T09:57:53.363Z,99703.35
2019-03-05T10:00:23.472Z,99699.70
2019-03-05T10:02:53.253Z,99703.22
2019-03-05T10:05:22.843Z,99712.69
2019-03-05T10:07:52.316Z,99721.52
2019-03-05T10:10:23.291Z,99710.15
2019-03-05T10:12:52.969Z,99716.84
2019-03-05T10:15:23.637Z,99708.88
2019-03-05T10:17:53.320Z,99704.95
2019-03-05T10:20:22.978Z,99702.81
2019-03-05T10:22:52.625Z,99698.31
2019-03-05T10:25:22.574Z,99713.17
2019-03-05T10:27:52.192Z,99705.53
2019-03-05T10:30:25.335Z,99729.93
2019-03-05T10:32:55.352Z,99720.03
2019-03-05T10:35:26.189Z,99723.43
2019-03-05T10:37:57.021Z,99728.53
2019-03-05T10:40:29.376Z,99733.98
2019-03-05T10:43:08.100Z,99734.11
2019-03-05T10:45:30.192Z,99733.67
2019-03-05T10:47:59.820Z,99735.62
2019-03-05T10:50:29.538Z,99729.38
2019-03-05T10:53:00.323Z,99735.23
2019-03-05T10:55:29.847Z,99744.46
2019-03-05T10:57:59.370Z,99744.46
2019-03-05T11:00:30.975Z,99762.34
2019-03-05T11:03:00.573Z,99770.85
2019-03-05T11:05:32.450Z,99781.86
2019-03-05T11:08:03.106Z,99781.39
2019-03-05T11:10:32.805Z,99776.79
2019-03-05T11:13:02.521Z,99785.11
2019-03-05T11:15:32.334Z,99780.82
2019-03-05T11:18:02.221Z,99786.34
2019-03-05T11:20:31.747Z,99785.93
2019-03-05T11:23:01.244Z,99792.20
2019-03-05T11:25:30.839Z,99777.69
2019-03-05T11:28:00.351Z,99781.89
2019-03-05T11:30:36.238Z,99790.05
2019-03-05T11:33:02.107Z,99787.25
2019-03-05T11:35:31.993Z,99791.26
2019-03-05T11:38:01.509Z,99796.94
2019-03-05T11:40:31.024Z,99806.14
2019-03-05T11:43:13.850Z,99805.94
2019-03-05T11:45:44.082Z,99802.26
2019-03-05T11:48:14.485Z,99813.92
2019-03-05T11:50:44.507Z,99820.72
2019-03-05T11:53:14.091Z,99818.39
2019-03-05T11:55:43.708Z,99833.95
2019-03-05T11:58:13.215Z,99825.52
2019-03-05T12:00:50.902Z,99823.79
2019-03-05T12:03:20.414Z,99835.91
2019-03-05T12:05:49.954Z,99831.49
2019-03-05T12:08:19.461Z,99831.07
2019-03-05T12:10:49.052Z,99838.56
2019-03-05T12:13:19.935Z,99844.95
2019-03-05T12:15:49.536Z,99847.39
2019-03-05T12:18:19.067Z,99848.00
2019-03-05T12:20:48.607Z,99848.92
2019-03-05T12:23:21.621Z,99852.86
2019-03-05T12:25:51.319Z,99847.39
2019-03-05T12:28:20.845Z,99853.46
2019-03-05T12:30:50.441Z,99843.41
2019-03-05T12:33:19.964Z,99856.34
2019-03-05T12:35:49.470Z,99798.25
2019-03-05T12:38:18.992Z,99866.36
2019-03-05T12:40:49.457Z,99874.13
2019-03-05T12:43:19.000Z,99871.23
2019-03-05T12:45:48.496Z,99874.97
2019-03-05T12:48:18.005Z,99866.01
2019-03-05T12:50:47.501Z,99883.42
2019-03-05T12:53:17.366Z,99884.64
2019-03-05T12:55:46.942Z,99873.86
2019-03-05T12:58:16.442Z,99885.55
2019-03-05T13:00:45.953Z,99880.61
2019-03-05T13:03:15.461Z,99878.86
2019-03-05T13:05:44.960Z,99885.41
2019-03-05T13:08:14.495Z,99886.73
2019-03-05T13:10:45.279Z,99893.86
2019-03-05T13:13:15.366Z,99892.38
2019-03-05T13:15:45.086Z,99896.05
2019-03-05T13:18:15.567Z,99889.71
2019-03-05T13:20:45.079Z,99893.86
2019-03-05T13:23:14.615Z,99894.34
2019-03-05T13:25:44.149Z,99900.05
2019-03-05T13:28:13.702Z,99892.78
2019-03-05T13:30:43.219Z,99890.85
2019-03-05T13:33:12.817Z,99893.05
2019-03-05T13:35:42.402Z,99896.78
2019-03-05T13:38:11.968Z,99899.44
2019-03-05T13:40:41.487Z,99909.23
2019-03-05T13:43:11.101Z,99909.66
2019-03-05T13:45:43.905Z,99910.70
2019-03-05T13:49:02.576Z,99902.83
2019-03-05T13:52:00.961Z,99903.47
2019-03-05T13:54:57.579Z,99909.52
2019-03-05T13:58:02.277Z,99901.77
2019-03-05T14:00:31.798Z,99911.27
2019-03-05T14:03:21.085Z,99914.78
2019-03-05T14:06:19.667Z,99915.52
2019-03-05T14:09:10.872Z,99913.17
2019-03-05T14:11:40.421Z,99912.61
2019-03-05T14:14:15.843Z,99917.78
2019-03-05T14:16:45.921Z,99921.58
2019-03-05T14:19:15.481Z,99929.44
2019-03-05T14:21:45.074Z,99926.11
2019-03-05T14:24:14.722Z,99927.10
2019-03-05T14:26:44.240Z,99931.28
2019-03-05T14:29:13.793Z,99943.56
2019-03-05T14:31:43.611Z,99936.59
2019-03-05T14:34:13.352Z,99943.08
2019-03-05T14:36:42.891Z,99933.48
2019-03-05T14:39:31.838Z,99942.01
2019-03-05T14:42:01.912Z,99937.55
2019-03-05T14:44:39.739Z,99939.31
2019-03-05T14:47:03.782Z,99943.05
2019-03-05T14:49:33.275Z,99943.62
2019-03-05T14:52:02.924Z,99932.95
2019-03-05T14:54:32.409Z,99928.16
2019-03-05T14:57:01.962Z,99935.08
2019-03-05T14:59:31.468Z,99939.27
2019-03-05T15:02:02.325Z,99947.16
2019-03-05T15:04:32.069Z,99944.28
2019-03-05T15:07:04.545Z,99942.47
2019-03-05T15:09:32.816Z,99950.42
2019-03-05T15:12:02.319Z,99958.69
2019-03-05T15:14:31.854Z,99955.38
2019-03-05T15:17:01.402Z,99959.38
2019-03-05T15:19:30.988Z,99965.57
2019-03-05T15:22:00.503Z,99973.02
2019-03-05T15:24:30.116Z,99971.91
2019-03-05T15:27:00.003Z,99971.06
2019-03-05T15:29:29.528Z,99965.64
2019-03-05T15:31:59.064Z,99991.31
2019-03-05T15:34:28.704Z,99984.13
2019-03-05T15:36:59.278Z,99987.71
2019-03-05T15:39:28.869Z,99984.52
2019-03-05T15:41:58.433Z,99989.51
2019-03-05T15:44:27.973Z,99998.86
2019-03-05T15:46:57.552Z,99998.27
2019-03-05T15:49:27.142Z,100000.63
2019-03-05T15:51:56.666Z,99997.27
2019-03-05T15:54:26.134Z,100004.53
2019-03-05T15:56:55.645Z,99998.88
2019-03-05T15:59:25.177Z,100008.51
2019-03-05T16:01:54.678Z,100010.79
2019-03-05T16:04:24.280Z,100010.48
2019-03-05T16:06:53.801Z,100013.17
2019-03-05T16:09:23.360Z,100011.77
2019-03-05T16:11:52.901Z,100018.30
2019-03-05T16:14:22.507Z,100016.91
2019-03-05T16:16:52.842Z,100022.59
2019-03-05T16:19:23.534Z,100023.72
2019-03-05T16:21:53.052Z,100025.02
2019-03-05T16:24:23.081Z,100032.71
2019-03-05T16:26:56.811Z,100032.75
2019-03-05T16:29:24.114Z,100041.80
2019-03-05T16:32:00.350Z,100044.74
2019-03-05T16:34:58.076Z,100050.22
2019-03-05T16:37:43.778Z,100057.06
2019-03-05T16:40:40.945Z,100065.44
2019-03-05T16:43:47.985Z,100064.13
2019-03-05T16:46:44.129Z,100062.08
2019-03-05T16:49:48.698Z,100074.83
2019-03-05T16:52:35.920Z,100018.84
2019-03-05T16:55:20.208Z,100082.57
2019-03-05T16:58:11.733Z,100084.72
2019-03-05T17:01:00.650Z,100088.13
2019-03-05T17:03:43.305Z,100094.45
2019-03-05T17:06:34.419Z,100096.55
2019-03-05T17:09:20.949Z,100096.02
2019-03-05T17:11:54.845Z,100103.56
2019-03-05T17:14:24.366Z,100112.47
2019-03-05T17:16:53.917Z,100116.23
2019-03-05T17:19:23.444Z,100119.98
2019-03-05T17:21:53.233Z,100121.69
2019-03-05T17:24:23.925Z,100120.70
2019-03-05T17:26:56.625Z,100121.55
2019-03-05T17:29:25.706Z,100128.22
2019-03-05T17:31:55.249Z,100132.77
2019-03-05T17:34:24.973Z,100138.46
2019-03-05T17:36:54.526Z,100136.60
2019-03-05T17:39:25.831Z,100143.35
2019-03-05T17:41:55.355Z,100148.80
2019-03-05T17:44:24.960Z,100156.73
2019-03-05T17:46:54.564Z,100151.98
2019-03-05T17:49:24.052Z,100161.30
2019-03-05T17:51:53.576Z,100170.56
2019-03-05T17:54:23.110Z,100165.04
2019-03-05T17:56:53.008Z,100175.52
2019-03-05T17:59:22.540Z,100175.94
2019-03-05T18:01:52.091Z,100179.70
2019-03-05T18:04:22.171Z,100189.44
2019-03-05T18:06:51.690Z,100129.87
2019-03-05T18:09:21.370Z,100193.59
2019-03-05T18:11:50.908Z,100194.80
2019-03-05T18:14:20.496Z,100200.25
2019-03-05T18:16:50.037Z,100202.59
2019-03-05T18:19:19.574Z,100212.42
2019-03-05T18:21:49.099Z,100210.13
2019-03-05T18:24:18.628Z,100225.32
2019-03-05T18:26:48.160Z,100225.32
2019-03-05T18:29:17.759Z,100224.91
2019-03-05T18:31:47.292Z,100231.76
2019-03-05T18:34:16.881Z,100238.33
2019-03-05T18:36:46.408Z,100236.50
2019-03-05T18:39:16.320Z,100237.11
2019-03-05T18:41:46.051Z,100235.84
2019-03-05T18:44:15.658Z,100244.34
2019-03-05T18:46:46.155Z,100246.09
2019-03-05T18:49:15.683Z,100244.34
2019-03-05T18:51:45.204Z,100252.46
2019-03-05T18:54:14.749Z,100251.67
2019-03-05T18:56:44.300Z,100255.53
2019-03-05T18:59:13.908Z,100256.06
2019-03-05T19:01:44.453Z,100254.67
2019-03-05T19:04:13.979Z,100201.95
2019-03-05T19:06:43.512Z,100264.14
2019-03-05T19:09:13.356Z,100267.70
2019-03-05T19:11:43.146Z,100271.06
2019-03-05T19:14:12.675Z,100270.16
2019-03-05T19:16:42.220Z,100275.38
2019-03-05T19:19:11.926Z,100275.94
2019-03-05T19:21:41.460Z,100278.29
2019-03-05T19:24:11.969Z,100277.66
2019-03-05T19:26:41.507Z,100281.25
2019-03-05T19:29:11.116Z,100284.33
2019-03-05T19:31:41.667Z,100280.02
2019-03-05T19:34:11.186Z,100285.19
2019-03-05T19:36:40.736Z,100282.11
2019-03-05T19:39:10.285Z,100286.88
2019-03-05T19:41:41.452Z,100287.73
2019-03-05T19:44:10.985Z,100293.97
2019-03-05T19:46:40.537Z,100289.83
2019-03-05T19:49:10.053Z,100292.05
2019-03-05T19:51:39.589Z,100286.05
2019-03-05T19:54:09.535Z,100294.79
2019-03-05T19:56:41.481Z,100289.78
2019-03-05T19:59:10.985Z,100287.98
2019-03-05T20:01:45.756Z,100291.80
2019-03-05T20:04:15.660Z,100300.80
2019-03-05T20:06:45.183Z,100312.03
2019-03-05T20:09:18.995Z,100315.70
2019-03-05T20:11:48.523Z,100318.42
2019-03-05T20:14:19.005Z,100321.56
2019-03-05T20:16:50.029Z,100321.24
2019-03-05T20:19:19.646Z,100326.16
2019-03-05T20:21:49.181Z,100322.30
2019-03-05T20:24:18.708Z,100326.92
2019-03-05T20:26:48.481Z,100336.55
2019-03-05T20:29:18.022Z,100338.37
2019-03-05T20:31:47.639Z,100334.19
2019-03-05T20:34:17.175Z,100339.64
2019-03-05T20:36:46.772Z,100341.60
2019-03-05T20:39:16.312Z,100339.00
2019-03-05T20:41:46.234Z,100343.14
2019-03-05T20:44:15.772Z,100344.09
2019-03-05T20:46:45.311Z,100345.63
2019-03-05T20:49:14.846Z,100344.72
2019-03-05T20:51:44.383Z,100341.63
2019-03-05T20:54:13.913Z,100346.71
2019-03-05T20:56:43.506Z,100353.17
2019-03-05T20:59:13.530Z,100357.04
2019-03-05T21:01:43.116Z,100346.96
2019-03-05T21:04:12.620Z,100356.02
2019-03-05T21:06:42.155Z,100353.92
2019-03-05T21:09:21.145Z,100359.05
2019-03-05T21:11:50.672Z,100367.84
2019-03-05T21:14:20.224Z,100370.02
2019-03-05T21:16:49.734Z,100367.13
2019-03-05T21:19:19.277Z,100374.48
2019-03-05T21:21:48.821Z,100376.02
2019-03-05T21:24:30.607Z,100371.63
2019-03-05T21:27:00.137Z,100378.28
2019-03-05T21:29:29.684Z,100383.00
2019-03-05T21:31:59.824Z,100383.05
2019-03-05T21:34:29.377Z,100387.08
2019-03-05T21:36:58.912Z,100389.39
2019-03-05T21:39:28.452Z,100389.89
2019-03-05T21:41:57.977Z,100394.56
2019-03-05T21:44:27.577Z,100396.39
2019-03-05T21:46:57.299Z,100396.39
2019-03-05T21:49:26.826Z,100395.64
2019-03-05T21:51:56.338Z,100394.38
2019-03-05T21:54:25.869Z,100391.89
2019-03-05T21:56:56.931Z,100392.80
2019-03-05T21:59:26.508Z,100391.69
2019-03-05T22:01:56.349Z,100390.30
2019-03-05T22:04:25.892Z,100385.78
2019-03-05T22:06:55.422Z,100386.92
2019-03-05T22:09:24.970Z,100385.61
2019-03-05T22:11:54.505Z,100387.50
2019-03-05T22:14:24.025Z,100389.64
2019-03-05T22:16:53.565Z,100384.31
2019-03-05T22:19:23.167Z,100395.99
2019-03-05T22:21:53.035Z,100393.30
2019-03-05T22:24:23.537Z,100395.36
2019-03-05T22:26:53.030Z,100396.80
2019-03-05T22:29:22.547Z,100403.18
2019-03-05T22:31:53.018Z,100403.18
2019-03-05T22:34:23.023Z,100407.73
2019-03-05T22:36:52.542Z,100402.61
2019-03-05T22:39:22.072Z,100408.59
2019-03-05T22:41:51.578Z,100404.86
2019-03-05T22:44:21.106Z,100409.53
2019-03-05T22:46:50.604Z,100408.77
2019-03-05T22:49:20.107Z,100410.10
2019-03-05T22:51:50.675Z,100410.80
2019-03-05T22:54:20.199Z,100415.47
2019-03-05T22:56:49.873Z,100410.73
2019-03-05T22:59:19.398Z,100409.92
2019-03-05T23:01:48.905Z,100419.41
2019-03-05T23:04:26.842Z,100416.91
2019-03-05T23:06:56.427Z,100418.30
2019-03-05T23:09:26.708Z,100416.28
2019-03-05T23:11:56.452Z,100420.94
2019-03-05T23:14:25.979Z,100423.50
2019-03-05T23:16:55.473Z,100422.97
2019-03-05T23:19:25.449Z,100423.60
2019-03-05T23:21:54.928Z,100422.92
2019-03-05T23:24:24.513Z,100427.58
2019-03-05T23:26:55.067Z,100425.09
2019-03-05T23:29:44.362Z,100424.17
2019-03-05T23:32:16.895Z,100423.11
2019-03-05T23:34:46.477Z,100428.57
2019-03-05T23:37:15.985Z,100430.63
2019-03-05T23:39:45.490Z,100425.69
2019-03-05T23:42:15.056Z,100427.98
2019-03-05T23:44:44.576Z,100428.09
2019-03-05T23:47:14.154Z,100427.01
2019-03-05T23:49:43.665Z,100423.00
2019-03-05T23:52:13.171Z,100423.31
2019-03-05T23:54:42.695Z,100418.80
2019-03-05T23:57:12.216Z,100422.65
2019-03-05T23:59:41.736Z,100423.28
